sensor_id;sensor_type;location;lat;lon;timestamp;pressure;altitude;pressure_sealevel;temperature;humidity
8069;BME280;4077;43.702;24.896;2023-01-26T00:00:46;100493.19;;;1.41;100.00
8069;BME280;4077;43.702;24.896;2023-01-26T00:03:11;100500.72;;;1.26;100.00
8069;BME280;4077;43.702;24.896;2023-01-26T00:05:37;100525.06;;;1.49;100.00
8069;BME280;4077;43.702;24.896;2023-01-26T00:08:03;100518.16;;;1.59;100.00
8069;BME280;4077;43.702;24.896;2023-01-26T00:10:29;100506.00;;;1.55;100.00
8069;BME280;4077;43.702;24.896;2023-01-26T00:12:55;100524.03;;;1.58;100.00
8069;BME280;4077;43.702;24.896;2023-01-26T00:15:21;100513.22;;;1.62;100.00
8069;BME280;4077;43.702;24.896;2023-01-26T00:17:46;100499.06;;;1.66;100.00
8069;BME280;4077;43.702;24.896;2023-01-26T00:20:12;100497.97;;;1.62;100.00
8069;BME280;4077;43.702;24.896;2023-01-26T00:22:37;100427.16;;;1.16;100.00
8069;BME280;4077;43.702;24.896;2023-01-26T00:25:03;100506.38;;;1.61;100.00
8069;BME280;4077;43.702;24.896;2023-01-26T00:27:31;100491.13;;;1.48;100.00
8069;BME280;4077;43.702;24.896;2023-01-26T00:29:56;100473.13;;;1.45;100.00
8069;BME280;4077;43.702;24.896;2023-01-26T00:32:22;100470.00;;;1.49;100.00
8069;BME280;4077;43.702;24.896;2023-01-26T00:34:47;100476.06;;;1.38;100.00
8069;BME280;4077;43.702;24.896;2023-01-26T00:37:13;100483.00;;;1.27;100.00
8069;BME280;4077;43.702;24.896;2023-01-26T00:39:38;100452.41;;;1.13;100.00
8069;BME280;4077;43.702;24.896;2023-01-26T00:42:04;100452.56;;;1.16;100.00
8069;BME280;4077;43.702;24.896;2023-01-26T00:44:35;100463.03;;;1.07;100.00
8069;BME280;4077;43.702;24.896;2023-01-26T00:47:01;100458.84;;;1.07;100.00
8069;BME280;4077;43.702;24.896;2023-01-26T00:49:26;100444.38;;;1.20;100.00
8069;BME280;4077;43.702;24.896;2023-01-26T00:51:52;100436.94;;;0.96;100.00
8069;BME280;4077;43.702;24.896;2023-01-26T00:54:17;100430.78;;;0.93;100.00
8069;BME280;4077;43.702;24.896;2023-01-26T00:56:43;100438.47;;;0.81;100.00
8069;BME280;4077;43.702;24.896;2023-01-26T00:59:08;100435.75;;;0.78;100.00
8069;BME280;4077;43.702;24.896;2023-01-26T01:01:33;100440.75;;;1.03;100.00
8069;BME280;4077;43.702;24.896;2023-01-26T01:03:59;100415.44;;;1.04;100.00
8069;BME280;4077;43.702;24.896;2023-01-26T01:06:24;100422.84;;;1.01;100.00
8069;BME280;4077;43.702;24.896;2023-01-26T01:08:50;100426.28;;;1.15;100.00
8069;BME280;4077;43.702;24.896;2023-01-26T01:11:15;100426.88;;;1.11;100.00
8069;BME280;4077;43.702;24.896;2023-01-26T01:13:40;100427.75;;;1.12;100.00
8069;BME280;4077;43.702;24.896;2023-01-26T01:16:11;100424.72;;;1.17;100.00
8069;BME280;4077;43.702;24.896;2023-01-26T01:18:38;100415.63;;;0.94;100.00
8069;BME280;4077;43.702;24.896;2023-01-26T01:21:11;100397.94;;;0.69;100.00
8069;BME280;4077;43.702;24.896;2023-01-26T01:23:37;100412.28;;;0.69;100.00
8069;BME280;4077;43.702;24.896;2023-01-26T01:26:03;100424.03;;;0.93;100.00
8069;BME280;4077;43.702;24.896;2023-01-26T01:28:29;100414.81;;;0.95;100.00
8069;BME280;4077;43.702;24.896;2023-01-26T01:30:55;100428.13;;;0.91;100.00
8069;BME280;4077;43.702;24.896;2023-01-26T01:33:21;100389.41;;;0.69;100.00
8069;BME280;4077;43.702;24.896;2023-01-26T01:36:08;100421.19;;;0.89;100.00
8069;BME280;4077;43.702;24.896;2023-01-26T01:38:34;100425.22;;;0.98;100.00
8069;BME280;4077;43.702;24.896;2023-01-26T01:41:00;100426.97;;;1.13;100.00
8069;BME280;4077;43.702;24.896;2023-01-26T01:43:27;100425.47;;;1.29;100.00
8069;BME280;4077;43.702;24.896;2023-01-26T01:45:53;100426.09;;;1.39;100.00
8069;BME280;4077;43.702;24.896;2023-01-26T01:50:53;100370.81;;;1.09;100.00
8069;BME280;4077;43.702;24.896;2023-01-26T01:53:23;100420.31;;;1.15;100.00
8069;BME280;4077;43.702;24.896;2023-01-26T01:55:54;100418.38;;;1.24;100.00
8069;BME280;4077;43.702;24.896;2023-01-26T01:58:21;100417.19;;;1.32;100.00
8069;BME280;4077;43.702;24.896;2023-01-26T02:00:48;100425.78;;;1.21;100.00
8069;BME280;4077;43.702;24.896;2023-01-26T02:03:14;100429.91;;;1.05;100.00
8069;BME280;4077;43.702;24.896;2023-01-26T02:06:15;100431.56;;;1.18;100.00
8069;BME280;4077;43.702;24.896;2023-01-26T02:08:49;100416.50;;;1.08;100.00
8069;BME280;4077;43.702;24.896;2023-01-26T02:11:23;100404.47;;;1.05;100.00
8069;BME280;4077;43.702;24.896;2023-01-26T02:13:50;100396.06;;;1.06;100.00
8069;BME280;4077;43.702;24.896;2023-01-26T02:16:17;100397.81;;;1.21;100.00
8069;BME280;4077;43.702;24.896;2023-01-26T02:18:43;100395.25;;;1.34;100.00
8069;BME280;4077;43.702;24.896;2023-01-26T02:21:12;100383.44;;;1.34;100.00
8069;BME280;4077;43.702;24.896;2023-01-26T02:23:53;100379.44;;;1.38;100.00
8069;BME280;4077;43.702;24.896;2023-01-26T02:26:26;100379.22;;;1.35;100.00
8069;BME280;4077;43.702;24.896;2023-01-26T02:28:53;100375.22;;;1.39;100.00
8069;BME280;4077;43.702;24.896;2023-01-26T02:31:19;100344.03;;;1.15;100.00
8069;BME280;4077;43.702;24.896;2023-01-26T02:33:46;100372.78;;;1.14;100.00
8069;BME280;4077;43.702;24.896;2023-01-26T02:36:28;100351.88;;;1.04;100.00
8069;BME280;4077;43.702;24.896;2023-01-26T02:41:40;100342.31;;;0.87;100.00
8069;BME280;4077;43.702;24.896;2023-01-26T02:44:25;100357.25;;;1.09;100.00
8069;BME280;4077;43.702;24.896;2023-01-26T02:46:52;100349.44;;;1.06;100.00
8069;BME280;4077;43.702;24.896;2023-01-26T02:49:17;100305.94;;;0.75;100.00
8069;BME280;4077;43.702;24.896;2023-01-26T02:52:03;100344.81;;;1.14;100.00
8069;BME280;4077;43.702;24.896;2023-01-26T02:54:29;100346.00;;;1.19;100.00
8069;BME280;4077;43.702;24.896;2023-01-26T02:57:13;100353.03;;;1.09;100.00
8069;BME280;4077;43.702;24.896;2023-01-26T02:59:38;100318.06;;;0.79;100.00
8069;BME280;4077;43.702;24.896;2023-01-26T03:02:04;100337.91;;;0.85;100.00
8069;BME280;4077;43.702;24.896;2023-01-26T03:04:29;100319.03;;;0.94;100.00
8069;BME280;4077;43.702;24.896;2023-01-26T03:06:55;100337.03;;;1.11;100.00
8069;BME280;4077;43.702;24.896;2023-01-26T03:09:20;100323.72;;;1.01;100.00
8069;BME280;4077;43.702;24.896;2023-01-26T03:11:46;100328.69;;;1.13;100.00
8069;BME280;4077;43.702;24.896;2023-01-26T03:14:12;100340.50;;;1.26;100.00
8069;BME280;4077;43.702;24.896;2023-01-26T03:16:39;100336.94;;;1.37;100.00
8069;BME280;4077;43.702;24.896;2023-01-26T03:19:05;100335.56;;;1.42;100.00
8069;BME280;4077;43.702;24.896;2023-01-26T03:21:34;100318.06;;;1.05;100.00
8069;BME280;4077;43.702;24.896;2023-01-26T03:24:18;100319.72;;;0.78;100.00
8069;BME280;4077;43.702;24.896;2023-01-26T03:27:02;100325.19;;;0.98;100.00
8069;BME280;4077;43.702;24.896;2023-01-26T03:29:46;100307.25;;;1.23;100.00
8069;BME280;4077;43.702;24.896;2023-01-26T03:32:12;100309.69;;;1.21;100.00
8069;BME280;4077;43.702;24.896;2023-01-26T03:34:38;100311.00;;;1.01;100.00
8069;BME280;4077;43.702;24.896;2023-01-26T03:37:04;100294.88;;;1.01;100.00
8069;BME280;4077;43.702;24.896;2023-01-26T03:39:29;100294.81;;;0.86;100.00
8069;BME280;4077;43.702;24.896;2023-01-26T03:42:13;100304.38;;;1.03;100.00
8069;BME280;4077;43.702;24.896;2023-01-26T03:44:57;100306.91;;;1.03;100.00
8069;BME280;4077;43.702;24.896;2023-01-26T03:47:41;100298.59;;;1.06;100.00
8069;BME280;4077;43.702;24.896;2023-01-26T03:50:25;100282.63;;;1.08;100.00
8069;BME280;4077;43.702;24.896;2023-01-26T03:53:17;100272.28;;;1.05;100.00
8069;BME280;4077;43.702;24.896;2023-01-26T03:56:01;100279.31;;;1.09;100.00
8069;BME280;4077;43.702;24.896;2023-01-26T03:58:52;100283.00;;;1.15;100.00
8069;BME280;4077;43.702;24.896;2023-01-26T04:01:20;100280.94;;;1.22;100.00
8069;BME280;4077;43.702;24.896;2023-01-26T04:03:51;100276.50;;;1.05;100.00
8069;BME280;4077;43.702;24.896;2023-01-26T04:06:36;100261.03;;;1.02;100.00
8069;BME280;4077;43.702;24.896;2023-01-26T04:09:21;100284.59;;;1.13;100.00
8069;BME280;4077;43.702;24.896;2023-01-26T04:11:47;100274.63;;;1.02;100.00
8069;BME280;4077;43.702;24.896;2023-01-26T04:14:13;100277.00;;;0.99;100.00
8069;BME280;4077;43.702;24.896;2023-01-26T04:16:59;100264.31;;;0.86;100.00
8069;BME280;4077;43.702;24.896;2023-01-26T04:19:44;100255.97;;;0.89;100.00
8069;BME280;4077;43.702;24.896;2023-01-26T04:22:28;100251.19;;;0.93;100.00
8069;BME280;4077;43.702;24.896;2023-01-26T04:24:54;100236.53;;;0.89;100.00
8069;BME280;4077;43.702;24.896;2023-01-26T04:27:21;100253.75;;;0.93;100.00
8069;BME280;4077;43.702;24.896;2023-01-26T04:29:47;100251.97;;;1.05;100.00
8069;BME280;4077;43.702;24.896;2023-01-26T04:32:13;100253.66;;;0.92;100.00
8069;BME280;4077;43.702;24.896;2023-01-26T04:34:38;100254.31;;;0.89;100.00
8069;BME280;4077;43.702;24.896;2023-01-26T04:37:03;100254.63;;;0.80;100.00
8069;BME280;4077;43.702;24.896;2023-01-26T04:39:29;100245.94;;;0.90;100.00
8069;BME280;4077;43.702;24.896;2023-01-26T04:41:54;100249.81;;;0.98;100.00
8069;BME280;4077;43.702;24.896;2023-01-26T04:44:20;100235.00;;;0.78;100.00
8069;BME280;4077;43.702;24.896;2023-01-26T04:46:45;100206.28;;;0.66;100.00
8069;BME280;4077;43.702;24.896;2023-01-26T04:49:13;100252.16;;;0.95;100.00
8069;BME280;4077;43.702;24.896;2023-01-26T04:51:38;100253.66;;;0.92;100.00
8069;BME280;4077;43.702;24.896;2023-01-26T04:54:04;100242.22;;;0.85;100.00
8069;BME280;4077;43.702;24.896;2023-01-26T04:56:32;100249.13;;;1.01;100.00
8069;BME280;4077;43.702;24.896;2023-01-26T04:59:00;100241.91;;;0.94;100.00
8069;BME280;4077;43.702;24.896;2023-01-26T05:01:26;100244.75;;;0.98;100.00
8069;BME280;4077;43.702;24.896;2023-01-26T05:03:52;100206.44;;;0.82;100.00
8069;BME280;4077;43.702;24.896;2023-01-26T05:06:17;100235.50;;;1.14;100.00
8069;BME280;4077;43.702;24.896;2023-01-26T05:08:43;100231.22;;;1.13;100.00
8069;BME280;4077;43.702;24.896;2023-01-26T05:11:08;100233.88;;;1.01;100.00
8069;BME280;4077;43.702;24.896;2023-01-26T05:13:34;100235.53;;;1.00;100.00
8069;BME280;4077;43.702;24.896;2023-01-26T05:16:01;100243.03;;;1.12;100.00
8069;BME280;4077;43.702;24.896;2023-01-26T05:18:27;100227.88;;;1.14;100.00
8069;BME280;4077;43.702;24.896;2023-01-26T05:20:52;100223.75;;;1.16;100.00
8069;BME280;4077;43.702;24.896;2023-01-26T05:23:18;100210.22;;;1.02;100.00
8069;BME280;4077;43.702;24.896;2023-01-26T05:25:43;100211.53;;;0.82;100.00
8069;BME280;4077;43.702;24.896;2023-01-26T05:28:09;100206.81;;;0.88;100.00
8069;BME280;4077;43.702;24.896;2023-01-26T05:30:34;100184.84;;;0.75;100.00
8069;BME280;4077;43.702;24.896;2023-01-26T05:33:04;100200.56;;;0.96;100.00
8069;BME280;4077;43.702;24.896;2023-01-26T05:35:30;100192.59;;;0.77;100.00
8069;BME280;4077;43.702;24.896;2023-01-26T05:37:55;100200.59;;;0.83;100.00
8069;BME280;4077;43.702;24.896;2023-01-26T05:40:21;100201.34;;;0.82;100.00
8069;BME280;4077;43.702;24.896;2023-01-26T05:42:47;100191.78;;;0.91;100.00
8069;BME280;4077;43.702;24.896;2023-01-26T05:45:13;100187.94;;;0.98;100.00
8069;BME280;4077;43.702;24.896;2023-01-26T05:47:38;100175.78;;;0.79;100.00
8069;BME280;4077;43.702;24.896;2023-01-26T05:50:05;100178.16;;;0.76;100.00
8069;BME280;4077;43.702;24.896;2023-01-26T05:52:31;100196.59;;;0.73;100.00
8069;BME280;4077;43.702;24.896;2023-01-26T05:54:57;100180.63;;;0.89;100.00
8069;BME280;4077;43.702;24.896;2023-01-26T05:57:22;100195.28;;;0.93;100.00
8069;BME280;4077;43.702;24.896;2023-01-26T05:59:48;100197.53;;;0.89;100.00
8069;BME280;4077;43.702;24.896;2023-01-26T06:02:13;100199.31;;;0.90;100.00
8069;BME280;4077;43.702;24.896;2023-01-26T06:04:39;100195.50;;;0.96;100.00
8069;BME280;4077;43.702;24.896;2023-01-26T06:07:04;100192.16;;;0.97;100.00
8069;BME280;4077;43.702;24.896;2023-01-26T06:09:30;100182.56;;;0.93;100.00
8069;BME280;4077;43.702;24.896;2023-01-26T06:11:56;100178.44;;;0.95;100.00
8069;BME280;4077;43.702;24.896;2023-01-26T06:14:22;100174.56;;;0.87;100.00
8069;BME280;4077;43.702;24.896;2023-01-26T06:16:47;100168.63;;;0.87;100.00
8069;BME280;4077;43.702;24.896;2023-01-26T06:19:13;100171.81;;;0.97;100.00
8069;BME280;4077;43.702;24.896;2023-01-26T06:21:38;100154.63;;;0.93;100.00
8069;BME280;4077;43.702;24.896;2023-01-26T06:24:04;100166.16;;;1.16;100.00
8069;BME280;4077;43.702;24.896;2023-01-26T06:26:29;100135.53;;;1.00;100.00
8069;BME280;4077;43.702;24.896;2023-01-26T06:28:55;100160.81;;;1.12;100.00
8069;BME280;4077;43.702;24.896;2023-01-26T06:31:21;100164.47;;;1.17;100.00
8069;BME280;4077;43.702;24.896;2023-01-26T06:33:48;100160.09;;;1.14;100.00
8069;BME280;4077;43.702;24.896;2023-01-26T06:36:15;100175.03;;;1.23;100.00
8069;BME280;4077;43.702;24.896;2023-01-26T06:38:48;100164.56;;;1.03;100.00
8069;BME280;4077;43.702;24.896;2023-01-26T06:41:15;100164.88;;;0.95;100.00
8069;BME280;4077;43.702;24.896;2023-01-26T06:43:44;100124.59;;;0.73;100.00
8069;BME280;4077;43.702;24.896;2023-01-26T06:46:10;100172.53;;;1.09;100.00
8069;BME280;4077;43.702;24.896;2023-01-26T06:48:36;100158.13;;;0.95;100.00
8069;BME280;4077;43.702;24.896;2023-01-26T06:56:12;100154.28;;;1.02;100.00
8069;BME280;4077;43.702;24.896;2023-01-26T06:58:38;100159.13;;;0.97;100.00
8069;BME280;4077;43.702;24.896;2023-01-26T07:01:04;100150.06;;;1.02;100.00
8069;BME280;4077;43.702;24.896;2023-01-26T07:03:29;100144.69;;;0.83;100.00
8069;BME280;4077;43.702;24.896;2023-01-26T07:05:55;100143.00;;;0.97;100.00
8069;BME280;4077;43.702;24.896;2023-01-26T07:08:21;100145.63;;;0.98;100.00
8069;BME280;4077;43.702;24.896;2023-01-26T07:10:46;100153.78;;;1.07;100.00
8069;BME280;4077;43.702;24.896;2023-01-26T07:13:11;100161.63;;;1.25;100.00
8069;BME280;4077;43.702;24.896;2023-01-26T07:15:37;100161.19;;;1.32;100.00
8069;BME280;4077;43.702;24.896;2023-01-26T07:18:02;100156.03;;;1.31;100.00
8069;BME280;4077;43.702;24.896;2023-01-26T07:20:28;100157.06;;;1.34;100.00
8069;BME280;4077;43.702;24.896;2023-01-26T07:22:53;100152.00;;;1.49;100.00
8069;BME280;4077;43.702;24.896;2023-01-26T07:25:19;100152.00;;;1.49;100.00
8069;BME280;4077;43.702;24.896;2023-01-26T07:27:44;100143.66;;;1.37;100.00
8069;BME280;4077;43.702;24.896;2023-01-26T07:30:11;100138.91;;;1.43;100.00
8069;BME280;4077;43.702;24.896;2023-01-26T07:32:38;100137.81;;;1.38;100.00
8069;BME280;4077;43.702;24.896;2023-01-26T07:35:04;100138.31;;;1.47;100.00
8069;BME280;4077;43.702;24.896;2023-01-26T07:37:30;100125.59;;;1.47;100.00
8069;BME280;4077;43.702;24.896;2023-01-26T07:39:55;100113.47;;;1.43;100.00
8069;BME280;4077;43.702;24.896;2023-01-26T07:42:21;100136.13;;;1.68;100.00
8069;BME280;4077;43.702;24.896;2023-01-26T07:44:47;100134.38;;;1.67;100.00
8069;BME280;4077;43.702;24.896;2023-01-26T07:47:12;100129.09;;;1.49;100.00
8069;BME280;4077;43.702;24.896;2023-01-26T07:49:41;100138.66;;;1.68;100.00
8069;BME280;4077;43.702;24.896;2023-01-26T07:52:06;100129.63;;;1.73;100.00
8069;BME280;4077;43.702;24.896;2023-01-26T07:54:33;100118.22;;;1.67;100.00
8069;BME280;4077;43.702;24.896;2023-01-26T07:56:59;100124.00;;;1.64;100.00
8069;BME280;4077;43.702;24.896;2023-01-26T07:59:24;100112.59;;;1.57;100.00
8069;BME280;4077;43.702;24.896;2023-01-26T08:01:50;100122.63;;;1.54;100.00
8069;BME280;4077;43.702;24.896;2023-01-26T08:04:16;100116.81;;;1.42;100.00
8069;BME280;4077;43.702;24.896;2023-01-26T08:06:42;100112.53;;;1.41;100.00
8069;BME280;4077;43.702;24.896;2023-01-26T08:09:07;100111.41;;;1.66;100.00
8069;BME280;4077;43.702;24.896;2023-01-26T08:11:33;100106.13;;;1.62;100.00
8069;BME280;4077;43.702;24.896;2023-01-26T08:13:58;100103.66;;;1.79;100.00
8069;BME280;4077;43.702;24.896;2023-01-26T08:16:24;100108.75;;;1.79;100.00
8069;BME280;4077;43.702;24.896;2023-01-26T08:18:50;100089.78;;;1.74;100.00
8069;BME280;4077;43.702;24.896;2023-01-26T08:21:16;100085.94;;;1.80;100.00
8069;BME280;4077;43.702;24.896;2023-01-26T08:23:43;100090.16;;;1.80;100.00
8069;BME280;4077;43.702;24.896;2023-01-26T08:26:12;100077.88;;;1.73;100.00
8069;BME280;4077;43.702;24.896;2023-01-26T08:28:38;100089.50;;;1.84;100.00
8069;BME280;4077;43.702;24.896;2023-01-26T08:31:05;100084.94;;;1.93;100.00
8069;BME280;4077;43.702;24.896;2023-01-26T08:33:31;100063.94;;;1.97;100.00
8069;BME280;4077;43.702;24.896;2023-01-26T08:36:05;100086.97;;;1.84;100.00
8069;BME280;4077;43.702;24.896;2023-01-26T08:38:32;100068.78;;;1.78;100.00
8069;BME280;4077;43.702;24.896;2023-01-26T08:40:59;100057.63;;;1.90;100.00
8069;BME280;4077;43.702;24.896;2023-01-26T08:43:24;100036.13;;;1.54;100.00
8069;BME280;4077;43.702;24.896;2023-01-26T08:45:50;100076.28;;;1.75;100.00
8069;BME280;4077;43.702;24.896;2023-01-26T08:48:15;100045.25;;;1.21;100.00
8069;BME280;4077;43.702;24.896;2023-01-26T08:50:41;100071.38;;;1.63;100.00
8069;BME280;4077;43.702;24.896;2023-01-26T08:53:06;100056.81;;;1.60;100.00
8069;BME280;4077;43.702;24.896;2023-01-26T08:55:33;100072.09;;;1.60;100.00
8069;BME280;4077;43.702;24.896;2023-01-26T08:57:59;100038.59;;;1.38;100.00
8069;BME280;4077;43.702;24.896;2023-01-26T09:00:25;100059.03;;;1.54;100.00
8069;BME280;4077;43.702;24.896;2023-01-26T09:02:58;100037.03;;;1.40;100.00
8069;BME280;4077;43.702;24.896;2023-01-26T09:05:24;100071.22;;;1.45;100.00
8069;BME280;4077;43.702;24.896;2023-01-26T09:07:49;100062.81;;;1.46;100.00
8069;BME280;4077;43.702;24.896;2023-01-26T09:10:15;100062.59;;;1.73;100.00
8069;BME280;4077;43.702;24.896;2023-01-26T09:12:40;100061.66;;;1.41;100.00
8069;BME280;4077;43.702;24.896;2023-01-26T09:15:06;100062.28;;;1.52;100.00
8069;BME280;4077;43.702;24.896;2023-01-26T09:17:32;100068.56;;;1.44;100.00
8069;BME280;4077;43.702;24.896;2023-01-26T09:19:57;100057.31;;;1.70;100.00
8069;BME280;4077;43.702;24.896;2023-01-26T09:22:23;100038.22;;;1.61;100.00
8069;BME280;4077;43.702;24.896;2023-01-26T09:24:48;100049.25;;;1.77;100.00
8069;BME280;4077;43.702;24.896;2023-01-26T09:27:14;100023.09;;;1.64;100.00
8069;BME280;4077;43.702;24.896;2023-01-26T09:29:39;100014.72;;;1.66;100.00
8069;BME280;4077;43.702;24.896;2023-01-26T09:32:05;100016.69;;;1.71;100.00
8069;BME280;4077;43.702;24.896;2023-01-26T09:34:30;100025.88;;;1.84;100.00
8069;BME280;4077;43.702;24.896;2023-01-26T09:36:55;100020.44;;;1.78;100.00
8069;BME280;4077;43.702;24.896;2023-01-26T09:39:21;100003.50;;;1.78;100.00
8069;BME280;4077;43.702;24.896;2023-01-26T09:44:24;99992.44;;;1.78;100.00
8069;BME280;4077;43.702;24.896;2023-01-26T09:49:47;99992.31;;;1.91;100.00
8069;BME280;4077;43.702;24.896;2023-01-26T09:52:48;99988.22;;;2.09;100.00
8069;BME280;4077;43.702;24.896;2023-01-26T09:55:18;99989.09;;;2.10;100.00
8069;BME280;4077;43.702;24.896;2023-01-26T09:58:02;99979.47;;;2.04;100.00
8069;BME280;4077;43.702;24.896;2023-01-26T10:00:32;99984.72;;;2.24;100.00
8069;BME280;4077;43.702;24.896;2023-01-26T10:05:52;99992.13;;;2.35;100.00
8069;BME280;4077;43.702;24.896;2023-01-26T10:08:20;99979.00;;;2.28;100.00
8069;BME280;4077;43.702;24.896;2023-01-26T10:10:53;99976.34;;;2.26;100.00
8069;BME280;4077;43.702;24.896;2023-01-26T10:13:21;99974.84;;;2.46;100.00
8069;BME280;4077;43.702;24.896;2023-01-26T10:15:53;99982.50;;;2.62;100.00
8069;BME280;4077;43.702;24.896;2023-01-26T10:18:31;99977.84;;;2.71;100.00
8069;BME280;4077;43.702;24.896;2023-01-26T10:21:01;99969.25;;;2.69;100.00
8069;BME280;4077;43.702;24.896;2023-01-26T10:23:32;99974.84;;;2.62;100.00
8069;BME280;4077;43.702;24.896;2023-01-26T10:26:19;99960.75;;;2.53;100.00
8069;BME280;4077;43.702;24.896;2023-01-26T10:28:47;99950.34;;;2.32;100.00
8069;BME280;4077;43.702;24.896;2023-01-26T10:31:16;99946.69;;;2.43;100.00
8069;BME280;4077;43.702;24.896;2023-01-26T10:33:54;99938.09;;;2.41;100.00
8069;BME280;4077;43.702;24.896;2023-01-26T10:36:20;99930.34;;;2.39;100.00
8069;BME280;4077;43.702;24.896;2023-01-26T10:38:47;99914.06;;;2.36;100.00
8069;BME280;4077;43.702;24.896;2023-01-26T10:43:40;99922.91;;;2.60;100.00
8069;BME280;4077;43.702;24.896;2023-01-26T10:48:55;99919.72;;;2.64;100.00
8069;BME280;4077;43.702;24.896;2023-01-26T10:51:29;99906.19;;;2.65;100.00
8069;BME280;4077;43.702;24.896;2023-01-26T10:54:21;99888.13;;;2.79;100.00
8069;BME280;4077;43.702;24.896;2023-01-26T10:56:50;99883.63;;;2.73;100.00
8069;BME280;4077;43.702;24.896;2023-01-26T10:59:37;99874.59;;;2.80;100.00
8069;BME280;4077;43.702;24.896;2023-01-26T11:04:35;99869.50;;;2.80;100.00
8069;BME280;4077;43.702;24.896;2023-01-26T11:07:27;99867.47;;;2.90;100.00
8069;BME280;4077;43.702;24.896;2023-01-26T11:09:53;99844.97;;;2.82;100.00
8069;BME280;4077;43.702;24.896;2023-01-26T11:12:20;99852.44;;;2.79;100.00
8069;BME280;4077;43.702;24.896;2023-01-26T11:15:20;99849.59;;;3.08;100.00
8069;BME280;4077;43.702;24.896;2023-01-26T11:17:54;99851.91;;;3.02;100.00
8069;BME280;4077;43.702;24.896;2023-01-26T11:23:11;99850.13;;;3.01;100.00
8069;BME280;4077;43.702;24.896;2023-01-26T11:28:42;99846.50;;;2.96;100.00
8069;BME280;4077;43.702;24.896;2023-01-26T11:37:25;99833.13;;;3.19;100.00
8069;BME280;4077;43.702;24.896;2023-01-26T11:48:27;99814.81;;;3.28;100.00
8069;BME280;4077;43.702;24.896;2023-01-26T11:51:10;99788.28;;;3.05;100.00
8069;BME280;4077;43.702;24.896;2023-01-26T11:59:18;99786.41;;;3.20;100.00
8069;BME280;4077;43.702;24.896;2023-01-26T12:04:21;99783.75;;;3.37;100.00
8069;BME280;4077;43.702;24.896;2023-01-26T12:06:54;99768.19;;;3.31;100.00
8069;BME280;4077;43.702;24.896;2023-01-26T12:09:35;99766.16;;;3.43;100.00
8069;BME280;4077;43.702;24.896;2023-01-26T12:17:29;99763.72;;;3.07;100.00
8069;BME280;4077;43.702;24.896;2023-01-26T12:25:40;99741.97;;;3.15;100.00
8069;BME280;4077;43.702;24.896;2023-01-26T12:33:42;99747.06;;;3.15;100.00
8069;BME280;4077;43.702;24.896;2023-01-26T12:39:04;99742.88;;;3.16;100.00
8069;BME280;4077;43.702;24.896;2023-01-26T12:44:52;99733.78;;;3.03;100.00
8069;BME280;4077;43.702;24.896;2023-01-26T12:53:17;99729.75;;;3.08;100.00
8069;BME280;4077;43.702;24.896;2023-01-26T13:01:06;99722.09;;;3.27;100.00
8069;BME280;4077;43.702;24.896;2023-01-26T13:03:36;99695.13;;;3.13;100.00
8069;BME280;4077;43.702;24.896;2023-01-26T13:11:02;99693.59;;;3.17;100.00
8069;BME280;4077;43.702;24.896;2023-01-26T13:13:32;99713.91;;;3.35;100.00
8069;BME280;4077;43.702;24.896;2023-01-26T13:18:53;99710.78;;;3.40;100.00
8069;BME280;4077;43.702;24.896;2023-01-26T13:26:51;99696.13;;;2.97;100.00
8069;BME280;4077;43.702;24.896;2023-01-26T13:34:28;99704.00;;;3.02;100.00
8069;BME280;4077;43.702;24.896;2023-01-26T13:37:02;99694.31;;;3.14;100.00
8069;BME280;4077;43.702;24.896;2023-01-26T13:39:36;99687.16;;;3.25;100.00
8069;BME280;4077;43.702;24.896;2023-01-26T13:42:13;99681.03;;;3.21;100.00
8069;BME280;4077;43.702;24.896;2023-01-26T13:44:44;99668.53;;;3.27;100.00
8069;BME280;4077;43.702;24.896;2023-01-26T13:47:14;99668.59;;;3.29;100.00
8069;BME280;4077;43.702;24.896;2023-01-26T13:49:43;99672.16;;;3.33;100.00
8069;BME280;4077;43.702;24.896;2023-01-26T13:52:23;99668.97;;;3.37;100.00
8069;BME280;4077;43.702;24.896;2023-01-26T13:54:54;99661.16;;;3.34;100.00
8069;BME280;4077;43.702;24.896;2023-01-26T13:57:23;99665.34;;;3.32;100.00
8069;BME280;4077;43.702;24.896;2023-01-26T13:59:53;99670.50;;;3.33;100.00
8069;BME280;4077;43.702;24.896;2023-01-26T14:02:34;99655.78;;;3.27;100.00
8069;BME280;4077;43.702;24.896;2023-01-26T14:05:01;99658.06;;;3.41;100.00
8069;BME280;4077;43.702;24.896;2023-01-26T14:07:40;99655.72;;;3.45;100.00
8069;BME280;4077;43.702;24.896;2023-01-26T14:10:15;99648.63;;;2.99;100.00
8069;BME280;4077;43.702;24.896;2023-01-26T14:12:45;99635.22;;;3.04;100.00
8069;BME280;4077;43.702;24.896;2023-01-26T14:15:31;99632.19;;;2.93;100.00
8069;BME280;4077;43.702;24.896;2023-01-26T14:18:02;99633.53;;;3.04;100.00
8069;BME280;4077;43.702;24.896;2023-01-26T14:20:37;99614.34;;;2.93;100.00
8069;BME280;4077;43.702;24.896;2023-01-26T14:25:35;99613.41;;;2.91;100.00
8069;BME280;4077;43.702;24.896;2023-01-26T14:28:01;99610.06;;;2.92;100.00
8069;BME280;4077;43.702;24.896;2023-01-26T14:30:30;99614.00;;;2.85;100.00
8069;BME280;4077;43.702;24.896;2023-01-26T14:33:03;99613.13;;;2.85;100.00
8069;BME280;4077;43.702;24.896;2023-01-26T14:35:29;99606.91;;;2.78;100.00
8069;BME280;4077;43.702;24.896;2023-01-26T14:40:41;99593.06;;;2.73;100.00
8069;BME280;4077;43.702;24.896;2023-01-26T14:43:08;99584.09;;;2.62;100.00
8069;BME280;4077;43.702;24.896;2023-01-26T14:45:34;99602.41;;;2.72;100.00
8069;BME280;4077;43.702;24.896;2023-01-26T14:48:05;99603.69;;;2.82;100.00
8069;BME280;4077;43.702;24.896;2023-01-26T14:50:33;99583.22;;;2.61;100.00
8069;BME280;4077;43.702;24.896;2023-01-26T14:53:00;99591.53;;;2.57;100.00
8069;BME280;4077;43.702;24.896;2023-01-26T14:55:30;99590.06;;;2.62;100.00
8069;BME280;4077;43.702;24.896;2023-01-26T14:58:00;99587.53;;;2.82;100.00
8069;BME280;4077;43.702;24.896;2023-01-26T15:00:35;99590.69;;;2.95;100.00
8069;BME280;4077;43.702;24.896;2023-01-26T15:03:29;99573.56;;;2.73;100.00
8069;BME280;4077;43.702;24.896;2023-01-26T15:08:38;99556.41;;;2.69;100.00